sensor_id;sensor_type;location;lat;lon;timestamp;temperature;humidity
13074;DHT22;6603;47.066;15.396;2023-11-19T00:00:44;3.80;1.00
13074;DHT22;6603;47.066;15.396;2023-11-19T00:03:09;3.80;1.00
13074;DHT22;6603;47.066;15.396;2023-11-19T00:05:39;3.70;1.00
13074;DHT22;6603;47.066;15.396;2023-11-19T00:08:05;4.10;1.00
13074;DHT22;6603;47.066;15.396;2023-11-19T00:10:32;4.20;1.00
13074;DHT22;6603;47.066;15.396;2023-11-19T00:12:57;4.20;1.00
13074;DHT22;6603;47.066;15.396;2023-11-19T00:15:23;4.10;1.00
13074;DHT22;6603;47.066;15.396;2023-11-19T00:17:50;4.00;99.90
13074;DHT22;6603;47.066;15.396;2023-11-19T00:20:17;4.00;1.00
13074;DHT22;6603;47.066;15.396;2023-11-19T00:22:44;4.10;99.90
13074;DHT22;6603;47.066;15.396;2023-11-19T00:25:11;4.00;99.90
13074;DHT22;6603;47.066;15.396;2023-11-19T00:27:37;3.90;99.90
13074;DHT22;6603;47.066;15.396;2023-11-19T00:30:04;3.80;99.90
13074;DHT22;6603;47.066;15.396;2023-11-19T00:32:32;3.80;1.00
13074;DHT22;6603;47.066;15.396;2023-11-19T00:34:58;3.80;1.00
13074;DHT22;6603;47.066;15.396;2023-11-19T00:37:24;3.70;1.00
13074;DHT22;6603;47.066;15.396;2023-11-19T00:39:49;3.70;1.00
13074;DHT22;6603;47.066;15.396;2023-11-19T00:42:15;3.70;1.00
13074;DHT22;6603;47.066;15.396;2023-11-19T00:44:41;3.70;1.00
13074;DHT22;6603;47.066;15.396;2023-11-19T00:47:07;3.70;1.00
13074;DHT22;6603;47.066;15.396;2023-11-19T00:49:33;3.70;1.00
13074;DHT22;6603;47.066;15.396;2023-11-19T00:51:59;3.80;1.00
13074;DHT22;6603;47.066;15.396;2023-11-19T00:54:25;3.90;1.00
13074;DHT22;6603;47.066;15.396;2023-11-19T00:56:52;3.90;1.00
13074;DHT22;6603;47.066;15.396;2023-11-19T00:59:21;3.90;1.00
13074;DHT22;6603;47.066;15.396;2023-11-19T01:01:47;4.10;1.00
13074;DHT22;6603;47.066;15.396;2023-11-19T01:04:19;4.10;1.00
13074;DHT22;6603;47.066;15.396;2023-11-19T01:06:45;4.20;99.90
13074;DHT22;6603;47.066;15.396;2023-11-19T01:09:11;4.10;99.90
13074;DHT22;6603;47.066;15.396;2023-11-19T01:11:36;4.00;1.00
13074;DHT22;6603;47.066;15.396;2023-11-19T01:14:03;3.90;1.00
13074;DHT22;6603;47.066;15.396;2023-11-19T01:16:29;3.90;1.00
13074;DHT22;6603;47.066;15.396;2023-11-19T01:18:55;4.20;1.00
13074;DHT22;6603;47.066;15.396;2023-11-19T01:21:22;4.30;1.00
13074;DHT22;6603;47.066;15.396;2023-11-19T01:23:47;4.50;1.00
13074;DHT22;6603;47.066;15.396;2023-11-19T01:26:13;4.50;99.90
13074;DHT22;6603;47.066;15.396;2023-11-19T01:28:40;4.40;1.00
13074;DHT22;6603;47.066;15.396;2023-11-19T01:31:09;4.20;99.90
13074;DHT22;6603;47.066;15.396;2023-11-19T01:33:38;4.40;99.90
13074;DHT22;6603;47.066;15.396;2023-11-19T01:36:04;4.40;99.90
13074;DHT22;6603;47.066;15.396;2023-11-19T01:38:30;4.30;1.00
13074;DHT22;6603;47.066;15.396;2023-11-19T01:40:57;4.20;99.90
13074;DHT22;6603;47.066;15.396;2023-11-19T01:43:39;4.20;99.90
13074;DHT22;6603;47.066;15.396;2023-11-19T01:46:08;4.20;1.00
13074;DHT22;6603;47.066;15.396;2023-11-19T01:48:44;4.30;99.90
13074;DHT22;6603;47.066;15.396;2023-11-19T01:51:12;4.20;1.00
13074;DHT22;6603;47.066;15.396;2023-11-19T01:53:39;4.30;99.90
13074;DHT22;6603;47.066;15.396;2023-11-19T01:56:09;4.20;1.00
13074;DHT22;6603;47.066;15.396;2023-11-19T01:58:36;4.30;99.90
13074;DHT22;6603;47.066;15.396;2023-11-19T02:01:03;4.40;99.90
13074;DHT22;6603;47.066;15.396;2023-11-19T02:03:31;4.10;99.90
13074;DHT22;6603;47.066;15.396;2023-11-19T02:05:59;4.00;1.00
13074;DHT22;6603;47.066;15.396;2023-11-19T02:08:25;3.90;99.90
13074;DHT22;6603;47.066;15.396;2023-11-19T02:10:52;3.90;1.00
13074;DHT22;6603;47.066;15.396;2023-11-19T02:13:18;3.90;99.90
13074;DHT22;6603;47.066;15.396;2023-11-19T02:15:44;4.00;99.90
13074;DHT22;6603;47.066;15.396;2023-11-19T02:18:21;3.90;1.00
13074;DHT22;6603;47.066;15.396;2023-11-19T02:20:51;3.80;1.00
13074;DHT22;6603;47.066;15.396;2023-11-19T02:23:19;3.70;1.00
13074;DHT22;6603;47.066;15.396;2023-11-19T02:28:23;3.70;1.00
13074;DHT22;6603;47.066;15.396;2023-11-19T02:30:49;3.80;1.00
13074;DHT22;6603;47.066;15.396;2023-11-19T02:33:15;3.70;1.00
13074;DHT22;6603;47.066;15.396;2023-11-19T02:35:41;3.70;1.00
13074;DHT22;6603;47.066;15.396;2023-11-19T02:38:07;3.70;1.00
13074;DHT22;6603;47.066;15.396;2023-11-19T02:40:33;3.70;1.00
13074;DHT22;6603;47.066;15.396;2023-11-19T02:42:59;3.70;1.00
13074;DHT22;6603;47.066;15.396;2023-11-19T02:45:27;3.70;1.00
13074;DHT22;6603;47.066;15.396;2023-11-19T02:47:53;3.50;1.00
13074;DHT22;6603;47.066;15.396;2023-11-19T02:50:20;3.60;1.00
13074;DHT22;6603;47.066;15.396;2023-11-19T02:52:54;3.60;1.00
13074;DHT22;6603;47.066;15.396;2023-11-19T02:55:22;3.70;1.00
13074;DHT22;6603;47.066;15.396;2023-11-19T02:57:50;3.60;1.00
13074;DHT22;6603;47.066;15.396;2023-11-19T03:00:20;3.50;1.00
13074;DHT22;6603;47.066;15.396;2023-11-19T03:02:51;3.50;1.00
13074;DHT22;6603;47.066;15.396;2023-11-19T03:05:40;3.80;1.00
13074;DHT22;6603;47.066;15.396;2023-11-19T03:08:06;3.80;1.00
13074;DHT22;6603;47.066;15.396;2023-11-19T03:10:32;3.70;1.00
13074;DHT22;6603;47.066;15.396;2023-11-19T03:13:00;3.80;1.00
13074;DHT22;6603;47.066;15.396;2023-11-19T03:15:28;3.80;1.00
13074;DHT22;6603;47.066;15.396;2023-11-19T03:17:54;3.90;1.00
13074;DHT22;6603;47.066;15.396;2023-11-19T03:20:23;3.70;1.00
13074;DHT22;6603;47.066;15.396;2023-11-19T03:22:51;3.60;1.00
13074;DHT22;6603;47.066;15.396;2023-11-19T03:25:18;3.60;1.00
13074;DHT22;6603;47.066;15.396;2023-11-19T03:27:44;3.50;1.00
13074;DHT22;6603;47.066;15.396;2023-11-19T03:30:10;3.60;1.00
13074;DHT22;6603;47.066;15.396;2023-11-19T03:32:37;3.70;1.00
13074;DHT22;6603;47.066;15.396;2023-11-19T03:35:05;3.70;1.00
13074;DHT22;6603;47.066;15.396;2023-11-19T03:37:33;3.90;1.00
13074;DHT22;6603;47.066;15.396;2023-11-19T03:39:59;3.80;1.00
13074;DHT22;6603;47.066;15.396;2023-11-19T03:42:29;3.70;1.00
13074;DHT22;6603;47.066;15.396;2023-11-19T03:44:58;3.70;1.00
13074;DHT22;6603;47.066;15.396;2023-11-19T03:47:24;3.60;1.00
13074;DHT22;6603;47.066;15.396;2023-11-19T03:49:51;3.60;1.00
13074;DHT22;6603;47.066;15.396;2023-11-19T03:52:18;3.70;1.00
13074;DHT22;6603;47.066;15.396;2023-11-19T03:54:44;3.70;1.00
13074;DHT22;6603;47.066;15.396;2023-11-19T03:57:12;3.60;1.00
13074;DHT22;6603;47.066;15.396;2023-11-19T03:59:38;3.80;1.00
13074;DHT22;6603;47.066;15.396;2023-11-19T04:02:05;3.70;1.00
13074;DHT22;6603;47.066;15.396;2023-11-19T04:04:30;3.60;1.00
13074;DHT22;6603;47.066;15.396;2023-11-19T04:06:56;3.60;1.00
13074;DHT22;6603;47.066;15.396;2023-11-19T04:09:23;3.60;1.00
13074;DHT22;6603;47.066;15.396;2023-11-19T04:11:49;3.60;1.00
13074;DHT22;6603;47.066;15.396;2023-11-19T04:14:15;3.60;1.00
13074;DHT22;6603;47.066;15.396;2023-11-19T04:16:44;3.40;1.00
13074;DHT22;6603;47.066;15.396;2023-11-19T04:19:11;3.60;1.00
13074;DHT22;6603;47.066;15.396;2023-11-19T04:21:39;3.40;1.00
13074;DHT22;6603;47.066;15.396;2023-11-19T04:24:07;3.50;29.00
13074;DHT22;6603;47.066;15.396;2023-11-19T04:26:33;3.80;1.00
13074;DHT22;6603;47.066;15.396;2023-11-19T04:28:59;3.70;1.00
13074;DHT22;6603;47.066;15.396;2023-11-19T04:31:29;3.70;1.00
13074;DHT22;6603;47.066;15.396;2023-11-19T04:33:59;3.60;1.00
13074;DHT22;6603;47.066;15.396;2023-11-19T04:36:26;3.70;1.00
13074;DHT22;6603;47.066;15.396;2023-11-19T04:38:52;3.50;1.00
13074;DHT22;6603;47.066;15.396;2023-11-19T04:41:18;3.30;1.00
13074;DHT22;6603;47.066;15.396;2023-11-19T04:43:43;3.20;9.90
13074;DHT22;6603;47.066;15.396;2023-11-19T04:46:10;3.30;60.60
13074;DHT22;6603;47.066;15.396;2023-11-19T04:48:35;3.40;7.20
13074;DHT22;6603;47.066;15.396;2023-11-19T04:51:05;3.40;24.50
13074;DHT22;6603;47.066;15.396;2023-11-19T04:53:31;3.40;30.00
13074;DHT22;6603;47.066;15.396;2023-11-19T04:55:57;3.30;19.90
13074;DHT22;6603;47.066;15.396;2023-11-19T04:58:23;3.30;51.70
13074;DHT22;6603;47.066;15.396;2023-11-19T05:00:49;3.00;59.00
13074;DHT22;6603;47.066;15.396;2023-11-19T05:03:14;3.10;49.50
13074;DHT22;6603;47.066;15.396;2023-11-19T05:05:40;3.30;26.80
13074;DHT22;6603;47.066;15.396;2023-11-19T05:08:06;3.30;23.20
13074;DHT22;6603;47.066;15.396;2023-11-19T05:10:32;3.30;1.00
13074;DHT22;6603;47.066;15.396;2023-11-19T05:12:58;3.20;19.00
13074;DHT22;6603;47.066;15.396;2023-11-19T05:15:24;3.30;10.60
13074;DHT22;6603;47.066;15.396;2023-11-19T05:17:50;3.20;7.10
13074;DHT22;6603;47.066;15.396;2023-11-19T05:20:16;3.10;53.50
13074;DHT22;6603;47.066;15.396;2023-11-19T05:22:42;3.20;15.10
13074;DHT22;6603;47.066;15.396;2023-11-19T05:25:09;3.20;29.40
13074;DHT22;6603;47.066;15.396;2023-11-19T05:27:36;3.20;49.40
13074;DHT22;6603;47.066;15.396;2023-11-19T05:30:04;3.10;2.80
13074;DHT22;6603;47.066;15.396;2023-11-19T05:32:36;3.00;36.80
13074;DHT22;6603;47.066;15.396;2023-11-19T05:35:04;3.10;41.60
13074;DHT22;6603;47.066;15.396;2023-11-19T05:37:31;3.00;30.70
13074;DHT22;6603;47.066;15.396;2023-11-19T05:39:56;2.90;12.70
13074;DHT22;6603;47.066;15.396;2023-11-19T05:42:22;2.90;32.20
13074;DHT22;6603;47.066;15.396;2023-11-19T05:44:50;2.80;54.80
13074;DHT22;6603;47.066;15.396;2023-11-19T05:47:16;3.00;92.50
13074;DHT22;6603;47.066;15.396;2023-11-19T05:49:42;3.00;84.60
13074;DHT22;6603;47.066;15.396;2023-11-19T05:52:08;3.20;99.90
13074;DHT22;6603;47.066;15.396;2023-11-19T05:54:35;3.60;73.00
13074;DHT22;6603;47.066;15.396;2023-11-19T05:57:06;3.40;55.40
13074;DHT22;6603;47.066;15.396;2023-11-19T05:59:35;3.60;49.00
13074;DHT22;6603;47.066;15.396;2023-11-19T06:02:02;3.60;46.70
13074;DHT22;6603;47.066;15.396;2023-11-19T06:04:29;3.70;53.70
13074;DHT22;6603;47.066;15.396;2023-11-19T06:06:55;3.70;48.10
13074;DHT22;6603;47.066;15.396;2023-11-19T06:09:21;3.70;54.40
13074;DHT22;6603;47.066;15.396;2023-11-19T06:11:50;3.60;42.60
13074;DHT22;6603;47.066;15.396;2023-11-19T06:14:17;3.30;80.10
13074;DHT22;6603;47.066;15.396;2023-11-19T06:16:43;3.50;99.40
13074;DHT22;6603;47.066;15.396;2023-11-19T06:19:09;3.70;33.30
13074;DHT22;6603;47.066;15.396;2023-11-19T06:21:36;3.50;2.10
13074;DHT22;6603;47.066;15.396;2023-11-19T06:24:03;3.30;58.90
13074;DHT22;6603;47.066;15.396;2023-11-19T06:26:29;3.60;56.60
13074;DHT22;6603;47.066;15.396;2023-11-19T06:28:55;3.80;25.40
13074;DHT22;6603;47.066;15.396;2023-11-19T06:31:21;3.80;24.50
13074;DHT22;6603;47.066;15.396;2023-11-19T06:33:47;3.70;23.70
13074;DHT22;6603;47.066;15.396;2023-11-19T06:36:16;3.80;44.20
13074;DHT22;6603;47.066;15.396;2023-11-19T06:38:44;4.00;2.40
13074;DHT22;6603;47.066;15.396;2023-11-19T06:41:10;4.00;1.00
13074;DHT22;6603;47.066;15.396;2023-11-19T06:43:37;3.90;1.00
13074;DHT22;6603;47.066;15.396;2023-11-19T06:46:03;3.90;1.00
13074;DHT22;6603;47.066;15.396;2023-11-19T06:48:32;4.10;1.00
13074;DHT22;6603;47.066;15.396;2023-11-19T06:50:58;4.20;1.00
13074;DHT22;6603;47.066;15.396;2023-11-19T06:53:24;4.00;1.00
13074;DHT22;6603;47.066;15.396;2023-11-19T06:55:50;4.10;1.00
13074;DHT22;6603;47.066;15.396;2023-11-19T06:58:16;4.20;1.00
13074;DHT22;6603;47.066;15.396;2023-11-19T07:00:43;4.20;1.00
13074;DHT22;6603;47.066;15.396;2023-11-19T07:03:09;4.10;1.00
13074;DHT22;6603;47.066;15.396;2023-11-19T07:05:36;4.10;1.00
13074;DHT22;6603;47.066;15.396;2023-11-19T07:08:05;3.90;1.00
13074;DHT22;6603;47.066;15.396;2023-11-19T07:10:32;3.80;1.00
13074;DHT22;6603;47.066;15.396;2023-11-19T07:12:59;4.00;1.00
13074;DHT22;6603;47.066;15.396;2023-11-19T07:15:25;4.00;1.00
13074;DHT22;6603;47.066;15.396;2023-11-19T07:17:51;4.10;1.00
13074;DHT22;6603;47.066;15.396;2023-11-19T07:20:20;4.10;1.00
13074;DHT22;6603;47.066;15.396;2023-11-19T07:22:45;3.90;1.00
13074;DHT22;6603;47.066;15.396;2023-11-19T07:25:14;3.90;1.00
13074;DHT22;6603;47.066;15.396;2023-11-19T07:27:40;4.00;1.00
13074;DHT22;6603;47.066;15.396;2023-11-19T07:30:07;4.20;1.00
13074;DHT22;6603;47.066;15.396;2023-11-19T07:32:33;4.10;1.00
13074;DHT22;6603;47.066;15.396;2023-11-19T07:34:59;4.10;1.00
13074;DHT22;6603;47.066;15.396;2023-11-19T07:37:25;4.10;1.00
13074;DHT22;6603;47.066;15.396;2023-11-19T07:39:51;4.20;1.00
13074;DHT22;6603;47.066;15.396;2023-11-19T07:42:16;4.20;1.00
13074;DHT22;6603;47.066;15.396;2023-11-19T07:44:43;4.10;1.00
13074;DHT22;6603;47.066;15.396;2023-11-19T07:47:09;4.10;1.00
13074;DHT22;6603;47.066;15.396;2023-11-19T07:49:35;4.20;1.00
13074;DHT22;6603;47.066;15.396;2023-11-19T07:52:01;4.10;1.00
13074;DHT22;6603;47.066;15.396;2023-11-19T07:54:28;4.10;1.00
13074;DHT22;6603;47.066;15.396;2023-11-19T07:56:54;4.10;1.00
13074;DHT22;6603;47.066;15.396;2023-11-19T07:59:20;4.30;1.00
13074;DHT22;6603;47.066;15.396;2023-11-19T08:01:46;4.20;1.00
13074;DHT22;6603;47.066;15.396;2023-11-19T08:04:12;4.20;1.00
13074;DHT22;6603;47.066;15.396;2023-11-19T08:06:38;4.20;1.00
13074;DHT22;6603;47.066;15.396;2023-11-19T08:09:04;4.20;1.00
13074;DHT22;6603;47.066;15.396;2023-11-19T08:11:29;4.30;1.00
13074;DHT22;6603;47.066;15.396;2023-11-19T08:13:55;4.30;1.00
13074;DHT22;6603;47.066;15.396;2023-11-19T08:16:21;4.50;1.00
13074;DHT22;6603;47.066;15.396;2023-11-19T08:18:47;4.50;1.00
13074;DHT22;6603;47.066;15.396;2023-11-19T08:21:12;4.30;1.00
13074;DHT22;6603;47.066;15.396;2023-11-19T08:23:39;4.40;1.00
13074;DHT22;6603;47.066;15.396;2023-11-19T08:26:06;4.40;1.00
13074;DHT22;6603;47.066;15.396;2023-11-19T08:28:32;4.40;1.00
13074;DHT22;6603;47.066;15.396;2023-11-19T08:30:59;4.40;1.00
13074;DHT22;6603;47.066;15.396;2023-11-19T08:33:26;4.50;1.00
13074;DHT22;6603;47.066;15.396;2023-11-19T08:35:51;4.50;1.00
13074;DHT22;6603;47.066;15.396;2023-11-19T08:38:17;4.60;1.00
13074;DHT22;6603;47.066;15.396;2023-11-19T08:40:43;4.70;1.00
13074;DHT22;6603;47.066;15.396;2023-11-19T08:43:09;4.70;1.00
13074;DHT22;6603;47.066;15.396;2023-11-19T08:45:34;4.60;1.00
13074;DHT22;6603;47.066;15.396;2023-11-19T08:48:01;4.70;1.00
13074;DHT22;6603;47.066;15.396;2023-11-19T08:50:27;4.80;1.00
13074;DHT22;6603;47.066;15.396;2023-11-19T08:52:53;4.80;1.00
13074;DHT22;6603;47.066;15.396;2023-11-19T08:55:18;4.80;1.00
13074;DHT22;6603;47.066;15.396;2023-11-19T08:57:44;4.90;1.00
13074;DHT22;6603;47.066;15.396;2023-11-19T09:00:11;5.00;1.00
13074;DHT22;6603;47.066;15.396;2023-11-19T09:02:39;5.10;1.00
13074;DHT22;6603;47.066;15.396;2023-11-19T09:05:06;5.20;1.00
13074;DHT22;6603;47.066;15.396;2023-11-19T09:07:35;5.20;1.00
13074;DHT22;6603;47.066;15.396;2023-11-19T09:10:01;5.40;1.00
13074;DHT22;6603;47.066;15.396;2023-11-19T09:12:27;5.60;1.00
13074;DHT22;6603;47.066;15.396;2023-11-19T09:14:53;5.90;1.00
13074;DHT22;6603;47.066;15.396;2023-11-19T09:17:19;5.90;1.00
13074;DHT22;6603;47.066;15.396;2023-11-19T09:19:45;6.10;1.00
13074;DHT22;6603;47.066;15.396;2023-11-19T09:22:11;6.20;1.00
13074;DHT22;6603;47.066;15.396;2023-11-19T09:24:36;6.20;1.00
13074;DHT22;6603;47.066;15.396;2023-11-19T09:27:02;6.40;1.00
13074;DHT22;6603;47.066;15.396;2023-11-19T09:29:31;6.40;1.00
13074;DHT22;6603;47.066;15.396;2023-11-19T09:31:57;6.40;1.00
13074;DHT22;6603;47.066;15.396;2023-11-19T09:34:23;6.20;1.00
13074;DHT22;6603;47.066;15.396;2023-11-19T09:36:49;6.20;1.00
13074;DHT22;6603;47.066;15.396;2023-11-19T09:39:14;6.30;1.00
13074;DHT22;6603;47.066;15.396;2023-11-19T09:41:41;6.30;1.00
13074;DHT22;6603;47.066;15.396;2023-11-19T09:44:08;6.40;1.00
13074;DHT22;6603;47.066;15.396;2023-11-19T09:46:35;6.50;1.00
13074;DHT22;6603;47.066;15.396;2023-11-19T09:49:03;6.60;99.90
13074;DHT22;6603;47.066;15.396;2023-11-19T09:51:30;6.70;99.90
13074;DHT22;6603;47.066;15.396;2023-11-19T09:53:56;6.90;99.90
13074;DHT22;6603;47.066;15.396;2023-11-19T09:56:23;6.90;99.90
13074;DHT22;6603;47.066;15.396;2023-11-19T09:58:49;6.70;1.00
13074;DHT22;6603;47.066;15.396;2023-11-19T10:01:15;6.90;1.00
13074;DHT22;6603;47.066;15.396;2023-11-19T10:03:41;7.00;99.90
13074;DHT22;6603;47.066;15.396;2023-11-19T10:06:10;7.10;86.90
13074;DHT22;6603;47.066;15.396;2023-11-19T10:08:40;7.00;1.00
13074;DHT22;6603;47.066;15.396;2023-11-19T10:11:07;6.80;99.90
13074;DHT22;6603;47.066;15.396;2023-11-19T10:13:36;6.90;99.90
13074;DHT22;6603;47.066;15.396;2023-11-19T10:16:12;6.80;1.00
13074;DHT22;6603;47.066;15.396;2023-11-19T10:18:49;7.00;1.00
13074;DHT22;6603;47.066;15.396;2023-11-19T10:21:19;7.20;99.90
13074;DHT22;6603;47.066;15.396;2023-11-19T10:23:55;7.30;99.90
13074;DHT22;6603;47.066;15.396;2023-11-19T10:26:26;7.40;1.00
13074;DHT22;6603;47.066;15.396;2023-11-19T10:28:53;7.40;99.90
13074;DHT22;6603;47.066;15.396;2023-11-19T10:31:20;7.50;1.00
13074;DHT22;6603;47.066;15.396;2023-11-19T10:33:55;7.60;1.00
13074;DHT22;6603;47.066;15.396;2023-11-19T10:36:22;7.60;99.90
13074;DHT22;6603;47.066;15.396;2023-11-19T10:38:55;7.70;1.00
13074;DHT22;6603;47.066;15.396;2023-11-19T10:43:54;7.80;99.90
13074;DHT22;6603;47.066;15.396;2023-11-19T10:46:20;7.90;1.00
13074;DHT22;6603;47.066;15.396;2023-11-19T10:48:49;7.90;1.00
13074;DHT22;6603;47.066;15.396;2023-11-19T10:51:19;8.00;1.00
13074;DHT22;6603;47.066;15.396;2023-11-19T10:53:49;8.10;99.90
13074;DHT22;6603;47.066;15.396;2023-11-19T10:56:20;8.20;1.00
13074;DHT22;6603;47.066;15.396;2023-11-19T10:58:51;8.30;99.90
13074;DHT22;6603;47.066;15.396;2023-11-19T11:01:20;8.40;99.90
13074;DHT22;6603;47.066;15.396;2023-11-19T11:03:51;8.50;1.00
13074;DHT22;6603;47.066;15.396;2023-11-19T11:06:20;8.50;99.90
13074;DHT22;6603;47.066;15.396;2023-11-19T11:08:48;8.50;1.00
13074;DHT22;6603;47.066;15.396;2023-11-19T11:11:16;8.60;1.00
13074;DHT22;6603;47.066;15.396;2023-11-19T11:13:50;8.70;1.00
13074;DHT22;6603;47.066;15.396;2023-11-19T11:16:19;8.80;1.00
13074;DHT22;6603;47.066;15.396;2023-11-19T11:18:47;8.70;1.00
13074;DHT22;6603;47.066;15.396;2023-11-19T11:21:17;8.70;1.00
13074;DHT22;6603;47.066;15.396;2023-11-19T11:26:59;8.80;1.00
13074;DHT22;6603;47.066;15.396;2023-11-19T11:29:54;8.90;55.10
13074;DHT22;6603;47.066;15.396;2023-11-19T11:32:41;8.90;1.00
13074;DHT22;6603;47.066;15.396;2023-11-19T11:38:09;9.30;99.90
13074;DHT22;6603;47.066;15.396;2023-11-19T11:40:35;9.30;99.90
13074;DHT22;6603;47.066;15.396;2023-11-19T11:43:04;9.30;99.90
13074;DHT22;6603;47.066;15.396;2023-11-19T11:45:50;9.30;1.00
13074;DHT22;6603;47.066;15.396;2023-11-19T11:48:17;9.30;1.00
13074;DHT22;6603;47.066;15.396;2023-11-19T11:50:49;9.30;1.00
13074;DHT22;6603;47.066;15.396;2023-11-19T11:53:17;9.40;1.00
13074;DHT22;6603;47.066;15.396;2023-11-19T11:58:19;9.50;1.00
13074;DHT22;6603;47.066;15.396;2023-11-19T12:00:47;9.60;1.00
13074;DHT22;6603;47.066;15.396;2023-11-19T12:03:13;9.70;1.00
13074;DHT22;6603;47.066;15.396;2023-11-19T12:05:44;9.70;99.90
13074;DHT22;6603;47.066;15.396;2023-11-19T12:08:12;9.80;1.00
13074;DHT22;6603;47.066;15.396;2023-11-19T12:10:49;10.00;1.00
13074;DHT22;6603;47.066;15.396;2023-11-19T12:13:18;10.00;1.00
13074;DHT22;6603;47.066;15.396;2023-11-19T12:18:24;10.00;1.00
13074;DHT22;6603;47.066;15.396;2023-11-19T12:20:51;10.10;99.90
13074;DHT22;6603;47.066;15.396;2023-11-19T12:23:17;10.00;99.90
13074;DHT22;6603;47.066;15.396;2023-11-19T12:25:44;9.90;99.90
13074;DHT22;6603;47.066;15.396;2023-11-19T12:28:15;9.80;1.00
13074;DHT22;6603;47.066;15.396;2023-11-19T12:30:45;10.10;1.00
13074;DHT22;6603;47.066;15.396;2023-11-19T12:33:13;10.10;1.00
13074;DHT22;6603;47.066;15.396;2023-11-19T12:35:43;10.10;99.90
13074;DHT22;6603;47.066;15.396;2023-11-19T12:38:19;10.30;1.00
13074;DHT22;6603;47.066;15.396;2023-11-19T12:41:11;10.30;99.90
13074;DHT22;6603;47.066;15.396;2023-11-19T12:43:39;10.40;99.90
13074;DHT22;6603;47.066;15.396;2023-11-19T12:46:26;10.40;99.90
13074;DHT22;6603;47.066;15.396;2023-11-19T12:48:52;10.40;99.90
13074;DHT22;6603;47.066;15.396;2023-11-19T12:51:19;10.50;80.90
13074;DHT22;6603;47.066;15.396;2023-11-19T12:53:52;10.50;99.90
13074;DHT22;6603;47.066;15.396;2023-11-19T12:56:23;10.40;28.50
13074;DHT22;6603;47.066;15.396;2023-11-19T12:58:50;10.40;99.90
13074;DHT22;6603;47.066;15.396;2023-11-19T13:01:20;10.40;99.90
13074;DHT22;6603;47.066;15.396;2023-11-19T13:03:47;10.40;99.90
13074;DHT22;6603;47.066;15.396;2023-11-19T13:06:14;10.50;99.90
13074;DHT22;6603;47.066;15.396;2023-11-19T13:08:50;10.50;99.90
13074;DHT22;6603;47.066;15.396;2023-11-19T13:11:34;10.40;1.00
13074;DHT22;6603;47.066;15.396;2023-11-19T13:14:03;10.60;99.90
13074;DHT22;6603;47.066;15.396;2023-11-19T13:16:30;10.40;99.90
13074;DHT22;6603;47.066;15.396;2023-11-19T13:18:57;10.40;99.90
13074;DHT22;6603;47.066;15.396;2023-11-19T13:21:23;10.40;99.90
13074;DHT22;6603;47.066;15.396;2023-11-19T13:23:50;10.40;23.20
13074;DHT22;6603;47.066;15.396;2023-11-19T13:26:16;10.40;99.90
13074;DHT22;6603;47.066;15.396;2023-11-19T13:28:42;10.50;1.00
13074;DHT22;6603;47.066;15.396;2023-11-19T13:31:08;10.50;19.60
13074;DHT22;6603;47.066;15.396;2023-11-19T13:33:34;10.40;1.00
13074;DHT22;6603;47.066;15.396;2023-11-19T13:36:00;10.30;99.90
13074;DHT22;6603;47.066;15.396;2023-11-19T13:38:34;10.30;99.90
13074;DHT22;6603;47.066;15.396;2023-11-19T13:41:05;10.10;99.90
13074;DHT22;6603;47.066;15.396;2023-11-19T13:43:31;10.20;99.90
13074;DHT22;6603;47.066;15.396;2023-11-19T13:45:58;10.10;99.90
13074;DHT22;6603;47.066;15.396;2023-11-19T13:48:24;10.00;1.00
13074;DHT22;6603;47.066;15.396;2023-11-19T13:50:52;9.90;1.00
13074;DHT22;6603;47.066;15.396;2023-11-19T13:53:18;10.00;1.00
13074;DHT22;6603;47.066;15.396;2023-11-19T13:55:44;9.80;1.00
13074;DHT22;6603;47.066;15.396;2023-11-19T13:58:10;9.70;99.90
13074;DHT22;6603;47.066;15.396;2023-11-19T14:00:36;9.70;99.90
13074;DHT22;6603;47.066;15.396;2023-11-19T14:03:03;9.80;99.90
13074;DHT22;6603;47.066;15.396;2023-11-19T14:05:29;9.70;99.90
13074;DHT22;6603;47.066;15.396;2023-11-19T14:07:54;9.60;1.00
13074;DHT22;6603;47.066;15.396;2023-11-19T14:10:22;9.50;99.90
13074;DHT22;6603;47.066;15.396;2023-11-19T14:12:49;9.40;99.90
13074;DHT22;6603;47.066;15.396;2023-11-19T14:15:18;9.40;1.00
13074;DHT22;6603;47.066;15.396;2023-11-19T14:17:47;9.40;1.00
13074;DHT22;6603;47.066;15.396;2023-11-19T14:20:13;9.40;1.00
13074;DHT22;6603;47.066;15.396;2023-11-19T14:22:47;9.30;1.00
13074;DHT22;6603;47.066;15.396;2023-11-19T14:25:15;9.10;1.00
13074;DHT22;6603;47.066;15.396;2023-11-19T14:27:43;9.00;1.00
13074;DHT22;6603;47.066;15.396;2023-11-19T14:30:11;8.90;1.00
13074;DHT22;6603;47.066;15.396;2023-11-19T14:32:38;8.70;99.90
13074;DHT22;6603;47.066;15.396;2023-11-19T14:35:05;8.60;25.70
13074;DHT22;6603;47.066;15.396;2023-11-19T14:37:31;8.50;99.90
13074;DHT22;6603;47.066;15.396;2023-11-19T14:39:57;8.30;1.00
13074;DHT22;6603;47.066;15.396;2023-11-19T14:42:24;8.10;99.90
13074;DHT22;6603;47.066;15.396;2023-11-19T14:44:51;8.00;1.00
13074;DHT22;6603;47.066;15.396;2023-11-19T14:47:21;7.80;1.00
13074;DHT22;6603;47.066;15.396;2023-11-19T14:49:48;7.90;1.00
13074;DHT22;6603;47.066;15.396;2023-11-19T14:52:14;7.80;1.00
13074;DHT22;6603;47.066;15.396;2023-11-19T14:54:39;7.60;1.00
13074;DHT22;6603;47.066;15.396;2023-11-19T14:57:06;7.50;1.00
13074;DHT22;6603;47.066;15.396;2023-11-19T14:59:34;7.30;1.00
13074;DHT22;6603;47.066;15.396;2023-11-19T15:02:00;7.20;1.00
13074;DHT22;6603;47.066;15.396;2023-11-19T15:04:26;7.20;1.00
13074;DHT22;6603;47.066;15.396;2023-11-19T15:06:52;7.20;1.00
13074;DHT22;6603;47.066;15.396;2023-11-19T15:09:18;7.00;1.00
13074;DHT22;6603;47.066;15.396;2023-11-19T15:11:47;6.90;1.00
13074;DHT22;6603;47.066;15.396;2023-11-19T15:14:16;6.90;1.00
13074;DHT22;6603;47.066;15.396;2023-11-19T15:16:45;6.90;1.00
13074;DHT22;6603;47.066;15.396;2023-11-19T15:19:12;6.70;1.00
13074;DHT22;6603;47.066;15.396;2023-11-19T15:21:40;6.80;1.00
13074;DHT22;6603;47.066;15.396;2023-11-19T15:24:06;6.80;1.00
13074;DHT22;6603;47.066;15.396;2023-11-19T15:26:36;6.80;1.00
13074;DHT22;6603;47.066;15.396;2023-11-19T15:29:03;6.50;1.00
13074;DHT22;6603;47.066;15.396;2023-11-19T15:31:29;6.40;36.60
13074;DHT22;6603;47.066;15.396;2023-11-19T15:33:55;6.30;23.80
13074;DHT22;6603;47.066;15.396;2023-11-19T15:36:21;6.10;5.60
13074;DHT22;6603;47.066;15.396;2023-11-19T15:38:47;6.20;32.80
13074;DHT22;6603;47.066;15.396;2023-11-19T15:41:13;6.10;46.30
13074;DHT22;6603;47.066;15.396;2023-11-19T15:43:39;6.10;53.60
13074;DHT22;6603;47.066;15.396;2023-11-19T15:46:06;6.10;66.80
13074;DHT22;6603;47.066;15.396;2023-11-19T15:48:33;6.20;61.90
13074;DHT22;6603;47.066;15.396;2023-11-19T15:50:58;6.20;49.60
13074;DHT22;6603;47.066;15.396;2023-11-19T15:53:24;6.20;26.60
13074;DHT22;6603;47.066;15.396;2023-11-19T15:55:51;6.20;44.20
13074;DHT22;6603;47.066;15.396;2023-11-19T15:58:19;5.90;24.20
13074;DHT22;6603;47.066;15.396;2023-11-19T16:00:44;5.70;99.90
13074;DHT22;6603;47.066;15.396;2023-11-19T16:03:13;5.70;79.10
13074;DHT22;6603;47.066;15.396;2023-11-19T16:05:39;5.80;86.50
13074;DHT22;6603;47.066;15.396;2023-11-19T16:08:05;5.70;82.90
13074;DHT22;6603;47.066;15.396;2023-11-19T16:10:31;5.60;84.90
13074;DHT22;6603;47.066;15.396;2023-11-19T16:12:57;5.60;89.50